首页
METAR-TAF:

METAR-TAF

机场 :

乔莫·肯雅塔国际机场

奈洛比, 肯尼亚

纬度: 01-19S, 经度: 036-55E, 海拔: 1624米

当前天气观测

该预报发布于28分钟前的23:30 UTC
风速6节,风向南转西南
温度 15°C
湿度 94%
气压 1023 hPa
能见度10公里或以上
多云层高于1800英尺

METAR: HKJK 192330Z 21006KT 9999 BKN018 15/14 Q1023

时间: 02:58 (23:58 UTC)

预报

该预报发布于6小时和58分钟前的17:00 UTC
预报有效从19日的 18点(UTC)到 20日的 24点(UTC)
风速5节,风向多变
能见度10公里或以上
少量云层高于700英尺
多云层高于2000英尺
短暂存在
从 20日的 00点(UTC)到 20日的 06点(UTC)
风速5节,风向
能見度: 3000
散云层高于600英尺
阴天层高于1600英尺
小毛毛雨, 轻雾
成为
从 20日的 08点(UTC)到 20日的 11点(UTC)
风速5节,风向
能见度10公里或以上
散云层高于800英尺
多云层高于1900英尺
小毛毛雨
成为
从 20日的 12点(UTC)到 20日的 18点(UTC)
散云层高于2100英尺
多云层高于8000英尺
成为
从 20日的 20点(UTC)到 20日的 23点(UTC)
风速5节,风向多变
散云层高于600英尺
多云层高于1700英尺

TAF: HKJK 191700Z 1918/2024 VRB05KT 9999 FEW007 BKN020 TEMPO 2000/2006 19005KT 3000 -DZ BR SCT006 OVC016 BECMG 2008/2011 17005KT 9999 -DZ SCT008 BKN019 BECMG 2012/2018 SCT021 BKN080 BECMG 2020/2023 VRB05KT SCT006 BKN017

超过4000个机场的气象观测和天气预报(METAR&TAF报告)。

可查询的气象台以黄色和红色小点在地图上表示。

将鼠标移到小点上方,可查看气象台名称。

然后点击查看天气观测和预报。

如需切换地图:点击带黑十字的绿色按钮放大地图;点击带横线的绿色按钮缩小地图;或者点击绿色箭头查看邻近地区的地图。


METAR-TAF: